createdAt,value
2024-02-11T00:00:15.075Z,63.36
2024-02-11T00:02:43.419Z,63.52
2024-02-11T00:05:13.150Z,64.70
2024-02-11T00:07:42.757Z,65.78
2024-02-11T00:10:11.680Z,64.75
2024-02-11T00:12:43.558Z,67.35
2024-02-11T00:15:12.418Z,67.99
2024-02-11T00:17:40.698Z,65.35
2024-02-11T00:20:11.274Z,62.95
2024-02-11T00:22:40.461Z,64.33
2024-02-11T00:25:12.043Z,64.65
2024-02-11T00:27:44.080Z,62.38
2024-02-11T00:30:12.834Z,62.13
2024-02-11T00:32:40.926Z,64.21
2024-02-11T00:35:09.452Z,66.09
2024-02-11T00:37:37.534Z,65.54
2024-02-11T00:40:07.360Z,62.07
2024-02-11T00:42:37.450Z,62.98
2024-02-11T00:45:06.326Z,61.88
2024-02-11T00:47:35.609Z,61.38
2024-02-11T00:50:03.813Z,63.73
2024-02-11T00:52:34.200Z,62.37
2024-02-11T00:55:02.194Z,61.52
2024-02-11T00:57:30.159Z,61.74
2024-02-11T00:59:59.397Z,60.92
2024-02-11T01:02:27.853Z,61.01
2024-02-11T01:04:56.204Z,62.25
2024-02-11T01:07:24.361Z,61.22
2024-02-11T01:09:52.337Z,62.43
2024-02-11T01:12:20.429Z,62.29
2024-02-11T01:14:48.387Z,62.95
2024-02-11T01:17:21.150Z,62.21
2024-02-11T01:19:49.236Z,64.58
2024-02-11T01:22:17.295Z,63.67
2024-02-11T01:24:45.154Z,61.86
2024-02-11T01:27:13.055Z,63.71
2024-02-11T01:29:41.646Z,64.46
2024-02-11T01:32:10.428Z,62.89
2024-02-11T01:34:39.718Z,65.06
2024-02-11T01:37:08.312Z,62.76
2024-02-11T01:39:36.745Z,64.60
2024-02-11T01:42:04.871Z,63.14
2024-02-11T01:44:32.747Z,61.91
2024-02-11T01:47:01.988Z,63.02
2024-02-11T01:49:29.953Z,66.21
2024-02-11T01:52:01.109Z,67.70
2024-02-11T01:54:31.248Z,66.78
2024-02-11T01:56:59.560Z,66.89
2024-02-11T01:59:31.574Z,68.58
2024-02-11T02:02:00.674Z,67.71
2024-02-11T02:04:29.000Z,65.91
2024-02-11T02:06:58.133Z,69.84
2024-02-11T02:09:27.666Z,68.50
2024-02-11T02:11:55.686Z,71.39
2024-02-11T02:14:23.807Z,66.65
2024-02-11T02:16:51.981Z,69.15
2024-02-11T02:19:21.882Z,65.52
2024-02-11T02:21:52.387Z,70.43
2024-02-11T02:24:20.334Z,69.32
2024-02-11T02:26:48.391Z,70.26
2024-02-11T02:29:16.445Z,66.62
2024-02-11T02:31:44.464Z,67.55
2024-02-11T02:34:12.562Z,66.97
2024-02-11T02:36:41.145Z,67.65
2024-02-11T02:39:12.316Z,70.62
2024-02-11T02:41:40.698Z,68.32
2024-02-11T02:44:08.726Z,66.89
2024-02-11T02:46:36.938Z,70.59
2024-02-11T02:49:04.912Z,70.52
2024-02-11T02:51:33.263Z,67.80
2024-02-11T02:54:03.493Z,65.31
2024-02-11T02:56:35.477Z,62.75
2024-02-11T02:59:06.693Z,62.33
2024-02-11T03:01:34.984Z,62.83
2024-02-11T03:04:03.607Z,63.04
2024-02-11T03:06:31.563Z,63.12
2024-02-11T03:08:59.493Z,60.91
2024-02-11T03:11:28.191Z,62.04
2024-02-11T03:13:57.645Z,63.37
2024-02-11T03:16:25.746Z,65.66
2024-02-11T03:18:53.686Z,64.37
2024-02-11T03:21:22.013Z,63.46
2024-02-11T03:23:49.901Z,63.03
2024-02-11T03:26:18.479Z,62.62
2024-02-11T03:28:46.421Z,63.74
2024-02-11T03:31:15.729Z,61.30
2024-02-11T03:33:43.767Z,62.52
2024-02-11T03:36:12.728Z,63.06
2024-02-11T03:38:40.694Z,60.84
2024-02-11T03:41:09.225Z,61.90
2024-02-11T03:43:37.381Z,60.68
2024-02-11T03:46:08.360Z,63.13
2024-02-11T03:48:37.790Z,63.10
2024-02-11T03:51:08.117Z,62.31
2024-02-11T03:53:36.182Z,61.72
2024-02-11T03:56:07.200Z,63.25
2024-02-11T03:58:36.948Z,66.09
2024-02-11T04:01:06.684Z,67.71
2024-02-11T04:03:35.066Z,65.75
2024-02-11T04:06:05.164Z,64.44
2024-02-11T04:08:35.894Z,64.26
2024-02-11T04:11:04.571Z,65.85
2024-02-11T04:13:32.605Z,66.27
2024-02-11T04:16:06.718Z,65.62
2024-02-11T04:18:34.952Z,63.90
2024-02-11T04:21:05.917Z,62.39
2024-02-11T04:23:34.093Z,63.88
2024-02-11T04:26:08.522Z,61.78
2024-02-11T04:28:37.821Z,68.30
2024-02-11T04:31:10.534Z,67.36
2024-02-11T04:33:40.317Z,62.93
2024-02-11T04:36:12.937Z,61.58
2024-02-11T04:38:40.983Z,65.30
2024-02-11T04:41:08.918Z,64.73
2024-02-11T04:43:36.881Z,65.47
2024-02-11T04:46:05.645Z,62.65
2024-02-11T04:48:33.753Z,67.48
2024-02-11T04:51:01.790Z,66.11
2024-02-11T04:53:31.597Z,64.62
2024-02-11T04:55:59.670Z,62.71
2024-02-11T04:58:32.385Z,65.01
2024-02-11T05:01:00.502Z,65.39
2024-02-11T05:03:29.166Z,66.60
2024-02-11T05:05:58.693Z,65.99
2024-02-11T05:08:26.996Z,64.07
2024-02-11T05:10:57.488Z,64.91
2024-02-11T05:13:31.432Z,66.45
2024-02-11T05:16:03.189Z,69.83
2024-02-11T05:18:33.818Z,66.26
2024-02-11T05:21:03.654Z,64.28
2024-02-11T05:23:31.742Z,63.76
2024-02-11T05:26:02.764Z,63.94
2024-02-11T05:28:31.894Z,66.96
2024-02-11T05:30:59.872Z,65.82
2024-02-11T05:33:28.075Z,65.97
2024-02-11T05:35:56.923Z,62.96
2024-02-11T05:38:26.041Z,64.32
2024-02-11T05:40:59.103Z,63.76
2024-02-11T05:43:29.038Z,62.30
2024-02-11T05:45:57.168Z,64.98
2024-02-11T05:48:25.357Z,64.25
2024-02-11T05:50:53.509Z,67.54
2024-02-11T05:53:21.883Z,66.62
2024-02-11T05:55:51.374Z,65.88
2024-02-11T05:58:19.501Z,66.09
2024-02-11T06:00:48.820Z,69.12
2024-02-11T06:03:21.771Z,67.53
2024-02-11T06:05:50.591Z,64.21
2024-02-11T06:08:18.961Z,64.31
2024-02-11T06:10:48.111Z,70.18
2024-02-11T06:13:16.134Z,70.97
2024-02-11T06:15:44.710Z,72.51
2024-02-11T06:18:14.150Z,71.89
2024-02-11T06:20:42.324Z,72.18
2024-02-11T06:23:11.463Z,68.68
2024-02-11T06:25:39.509Z,69.61
2024-02-11T06:28:08.009Z,72.78
2024-02-11T06:30:38.342Z,73.23
2024-02-11T06:33:11.110Z,71.83
2024-02-11T06:35:41.402Z,71.89
2024-02-11T06:38:09.658Z,72.66
2024-02-11T06:40:37.765Z,71.21
2024-02-11T06:43:12.379Z,67.98
2024-02-11T06:45:46.888Z,69.04
2024-02-11T06:48:15.694Z,69.11
2024-02-11T06:50:45.129Z,68.65
2024-02-11T06:53:13.702Z,66.87
2024-02-11T06:55:42.165Z,65.19
2024-02-11T06:58:10.797Z,68.52
2024-02-11T07:00:39.097Z,67.45
2024-02-11T07:03:07.431Z,66.18
2024-02-11T07:05:35.836Z,66.57
2024-02-11T07:08:08.071Z,67.73
2024-02-11T07:10:37.201Z,67.93
2024-02-11T07:13:05.390Z,67.35
2024-02-11T07:15:34.813Z,67.83
2024-02-11T07:18:02.838Z,69.77
2024-02-11T07:20:31.055Z,66.43
2024-02-11T07:22:59.067Z,65.67
2024-02-11T07:25:28.918Z,65.54
2024-02-11T07:27:56.817Z,65.98
2024-02-11T07:30:25.004Z,66.02
2024-02-11T07:32:52.945Z,65.93
2024-02-11T07:35:24.357Z,64.54
2024-02-11T07:37:52.601Z,67.93
2024-02-11T07:40:20.540Z,68.12
2024-02-11T07:42:49.803Z,65.17
2024-02-11T07:45:18.123Z,64.86
2024-02-11T07:47:48.967Z,63.70
2024-02-11T07:50:18.003Z,63.68
2024-02-11T07:52:48.000Z,65.12
2024-02-11T07:55:16.675Z,64.64
2024-02-11T07:57:46.994Z,67.35
2024-02-11T08:00:19.064Z,64.58
2024-02-11T08:02:47.171Z,65.76
2024-02-11T08:05:15.248Z,64.26
2024-02-11T08:07:43.209Z,63.98
2024-02-11T08:10:12.439Z,65.07
2024-02-11T08:12:40.340Z,63.42
2024-02-11T08:15:13.673Z,65.94
2024-02-11T08:17:43.614Z,64.91
2024-02-11T08:20:13.421Z,65.37
2024-02-11T08:22:41.397Z,70.11
2024-02-11T08:25:11.998Z,66.81
2024-02-11T08:27:40.437Z,63.99
2024-02-11T08:30:10.668Z,68.84
2024-02-11T08:32:39.523Z,64.00
2024-02-11T08:35:10.417Z,62.75
2024-02-11T08:37:38.573Z,65.16
2024-02-11T08:40:08.665Z,65.73
2024-02-11T08:42:36.672Z,63.95
2024-02-11T08:45:04.978Z,63.76
2024-02-11T08:47:33.137Z,62.95
2024-02-11T08:50:01.216Z,61.21
2024-02-11T08:52:30.762Z,66.07
2024-02-11T08:54:58.630Z,65.25
2024-02-11T08:57:28.083Z,65.73
2024-02-11T08:59:56.276Z,63.84
2024-02-11T09:02:28.018Z,68.69
2024-02-11T09:04:58.288Z,66.36
2024-02-11T09:07:26.247Z,69.36
2024-02-11T09:09:55.507Z,68.79
2024-02-11T09:12:24.144Z,70.23
2024-02-11T09:14:52.078Z,67.13
2024-02-11T09:17:20.052Z,64.10
2024-02-11T09:19:48.265Z,61.79
2024-02-11T09:22:16.834Z,63.03
2024-02-11T09:24:44.810Z,63.57
2024-02-11T09:27:14.186Z,60.95
2024-02-11T09:29:42.190Z,61.42
2024-02-11T09:32:10.472Z,59.35
2024-02-11T09:34:38.666Z,61.22
2024-02-11T09:37:06.824Z,62.04
2024-02-11T09:39:34.824Z,63.38
2024-02-11T09:42:03.232Z,62.31
2024-02-11T09:44:36.569Z,62.47
2024-02-11T09:47:06.514Z,60.81
2024-02-11T09:49:38.030Z,59.48
2024-02-11T09:52:07.102Z,59.78
2024-02-11T09:54:36.727Z,58.55
2024-02-11T09:57:04.952Z,60.39
2024-02-11T09:59:34.976Z,59.08
2024-02-11T10:02:08.249Z,59.93
2024-02-11T10:04:40.992Z,59.23
2024-02-11T10:07:21.303Z,58.04
2024-02-11T10:09:49.851Z,58.11
2024-02-11T10:12:19.227Z,59.76
2024-02-11T10:14:59.525Z,59.57
2024-02-11T10:17:33.288Z,59.51
2024-02-11T10:20:01.544Z,58.17
2024-02-11T10:22:30.763Z,59.01
2024-02-11T10:24:58.986Z,58.07
2024-02-11T10:27:26.958Z,59.21
2024-02-11T10:29:54.930Z,59.55
2024-02-11T10:32:24.793Z,58.70
2024-02-11T10:34:53.018Z,58.87
2024-02-11T10:37:21.115Z,58.82
2024-02-11T10:39:49.088Z,59.33
2024-02-11T10:42:18.834Z,60.23
2024-02-11T10:44:50.400Z,58.11
2024-02-11T10:47:18.523Z,59.53
2024-02-11T10:49:47.927Z,58.59
2024-02-11T10:52:17.890Z,58.88
2024-02-11T10:54:49.292Z,60.43
2024-02-11T10:57:22.274Z,58.84
2024-02-11T10:59:54.963Z,58.67
2024-02-11T11:02:26.754Z,60.54
2024-02-11T11:04:58.737Z,59.64
2024-02-11T11:07:33.703Z,59.03
2024-02-11T11:10:03.272Z,58.93
2024-02-11T11:12:31.183Z,58.85
2024-02-11T11:14:59.960Z,58.11
2024-02-11T11:17:28.408Z,59.23
2024-02-11T11:20:00.616Z,58.66
2024-02-11T11:22:30.195Z,59.08
2024-02-11T11:24:59.205Z,58.67
2024-02-11T11:27:28.077Z,57.95
2024-02-11T11:29:56.084Z,58.24
2024-02-11T11:32:24.936Z,61.48
2024-02-11T11:34:53.301Z,59.28
2024-02-11T11:37:25.394Z,58.17
2024-02-11T11:39:55.889Z,57.67
2024-02-11T11:42:23.773Z,56.95
2024-02-11T11:44:51.655Z,56.95
2024-02-11T11:47:22.123Z,57.15
2024-02-11T11:49:52.288Z,57.92
2024-02-11T11:52:21.208Z,58.15
2024-02-11T11:54:50.462Z,59.37
2024-02-11T11:57:19.531Z,59.83
2024-02-11T11:59:57.332Z,59.26
2024-02-11T12:02:25.668Z,59.19
2024-02-11T12:04:54.322Z,58.33
2024-02-11T12:07:22.827Z,58.72
2024-02-11T12:09:53.912Z,59.15
2024-02-11T12:12:22.281Z,57.13
2024-02-11T12:14:49.966Z,58.10
2024-02-11T12:17:18.309Z,58.14
2024-02-11T12:19:49.458Z,57.95
2024-02-11T12:22:17.772Z,58.82
2024-02-11T12:24:45.833Z,60.35
2024-02-11T12:27:19.256Z,57.97
2024-02-11T12:29:55.348Z,59.57
2024-02-11T12:32:25.759Z,58.89
2024-02-11T12:34:57.613Z,60.48
2024-02-11T12:37:29.702Z,60.59
2024-02-11T12:39:58.675Z,60.21
2024-02-11T12:42:28.331Z,59.48
2024-02-11T12:44:56.672Z,58.22
2024-02-11T12:47:25.774Z,60.19
2024-02-11T12:49:54.303Z,58.91
2024-02-11T12:52:22.471Z,59.67
2024-02-11T12:54:50.397Z,61.26
2024-02-11T12:57:18.454Z,59.57
2024-02-11T12:59:48.080Z,61.10
2024-02-11T13:02:17.438Z,59.84
2024-02-11T13:04:45.553Z,58.66
2024-02-11T13:07:13.528Z,59.98
2024-02-11T13:09:41.506Z,60.10
2024-02-11T13:12:09.453Z,60.17
2024-02-11T13:14:37.530Z,60.47
2024-02-11T13:17:08.115Z,59.26
2024-02-11T13:19:36.172Z,60.97
2024-02-11T13:22:05.139Z,60.53
2024-02-11T13:24:33.081Z,59.55
2024-02-11T13:27:00.989Z,59.51
2024-02-11T13:29:29.071Z,61.91
2024-02-11T13:31:57.238Z,61.06
2024-02-11T13:34:26.676Z,59.98
2024-02-11T13:36:54.676Z,60.29
2024-02-11T13:39:23.337Z,61.02
2024-02-11T13:41:51.440Z,61.91
2024-02-11T13:44:19.392Z,61.44
2024-02-11T13:46:47.410Z,61.44
2024-02-11T13:49:15.424Z,60.57
2024-02-11T13:51:45.047Z,62.10
2024-02-11T13:54:13.486Z,60.82
2024-02-11T13:56:41.391Z,61.94
2024-02-11T13:59:09.535Z,61.80
2024-02-11T14:01:37.741Z,61.04
2024-02-11T14:04:06.091Z,61.57
2024-02-11T14:06:34.389Z,61.25
2024-02-11T14:09:03.793Z,60.53
2024-02-11T14:11:31.739Z,61.07
2024-02-11T14:13:59.687Z,60.69
2024-02-11T14:16:27.626Z,60.12
2024-02-11T14:18:55.682Z,61.13
2024-02-11T14:21:24.656Z,60.33
2024-02-11T14:23:52.701Z,60.94
2024-02-11T14:26:22.122Z,61.07
2024-02-11T14:28:50.946Z,61.05
2024-02-11T14:31:19.227Z,59.83
2024-02-11T14:33:47.352Z,61.06
2024-02-11T14:36:15.545Z,61.80
2024-02-11T14:38:45.281Z,61.35
2024-02-11T14:43:04.724Z,62.21
2024-02-11T14:45:32.719Z,62.10
2024-02-11T14:48:01.586Z,61.32
2024-02-11T14:50:30.019Z,61.63
2024-02-11T14:52:59.673Z,61.41
2024-02-11T14:55:27.764Z,61.04
2024-02-11T14:57:55.903Z,62.16
2024-02-11T15:00:27.493Z,60.59
2024-02-11T15:02:55.518Z,62.06
2024-02-11T15:05:23.522Z,62.22
2024-02-11T15:07:51.563Z,61.68
2024-02-11T15:10:19.594Z,62.15
2024-02-11T15:12:47.773Z,61.43
2024-02-11T15:15:16.874Z,62.17
2024-02-11T15:17:46.216Z,63.35
2024-02-11T15:20:14.444Z,62.42
2024-02-11T15:22:45.195Z,62.53
2024-02-11T15:25:14.583Z,62.32
2024-02-11T15:27:42.533Z,62.23
2024-02-11T15:30:15.329Z,61.41
2024-02-11T15:32:43.568Z,61.87
2024-02-11T15:35:13.272Z,61.61
2024-02-11T15:37:41.201Z,60.76
2024-02-11T15:40:11.106Z,60.76
2024-02-11T15:42:39.031Z,61.88
2024-02-11T15:45:07.790Z,60.88
2024-02-11T15:47:37.250Z,61.47
2024-02-11T15:50:06.105Z,61.90
2024-02-11T15:52:35.493Z,61.67
2024-02-11T15:55:03.633Z,60.95
2024-02-11T15:57:31.526Z,60.96
2024-02-11T15:59:59.548Z,62.13
2024-02-11T16:02:29.008Z,61.04
2024-02-11T16:04:57.069Z,60.65
2024-02-11T16:07:25.266Z,61.34
2024-02-11T16:09:54.890Z,60.38
2024-02-11T16:12:22.786Z,61.87
2024-02-11T16:14:50.931Z,59.34
2024-02-11T16:17:18.840Z,59.43
2024-02-11T16:19:47.963Z,61.09
2024-02-11T16:22:15.898Z,60.71
2024-02-11T16:24:43.826Z,59.97
2024-02-11T16:27:14.657Z,60.42
2024-02-11T16:29:42.562Z,61.49
2024-02-11T16:32:10.753Z,60.90
2024-02-11T16:34:38.781Z,61.37
2024-02-11T16:37:06.727Z,61.27
2024-02-11T16:39:34.666Z,60.03
2024-02-11T16:42:02.579Z,59.28
2024-02-11T16:44:31.900Z,60.04
2024-02-11T16:46:59.870Z,61.45
2024-02-11T16:49:28.215Z,61.43
2024-02-11T16:51:57.237Z,60.36
2024-02-11T16:54:25.146Z,61.79
2024-02-11T16:56:52.362Z,62.90
2024-02-11T16:59:20.328Z,61.13
2024-02-11T17:01:49.734Z,59.85
2024-02-11T17:04:17.655Z,60.48
2024-02-11T17:06:45.573Z,62.86
2024-02-11T17:09:15.465Z,60.62
2024-02-11T17:11:47.544Z,59.58
2024-02-11T17:14:15.919Z,60.54
2024-02-11T17:16:44.551Z,59.06
2024-02-11T17:19:15.738Z,59.18
2024-02-11T17:21:43.868Z,59.73
2024-02-11T17:24:11.903Z,60.39
2024-02-11T17:26:40.124Z,59.45
2024-02-11T17:29:09.518Z,60.22
2024-02-11T17:31:41.868Z,59.19
2024-02-11T17:34:14.295Z,57.86
2024-02-11T17:36:44.750Z,58.48
2024-02-11T17:39:14.884Z,59.54
2024-02-11T17:41:42.989Z,59.47
2024-02-11T17:44:11.109Z,59.76
2024-02-11T17:46:40.250Z,60.78
2024-02-11T17:49:09.932Z,59.92
2024-02-11T17:51:39.551Z,58.56
2024-02-11T17:54:11.572Z,59.82
2024-02-11T17:56:42.124Z,59.48
2024-02-11T17:59:10.859Z,59.41
2024-02-11T18:01:40.017Z,59.42
2024-02-11T18:04:08.681Z,59.15
2024-02-11T18:06:39.056Z,58.53
2024-02-11T18:09:12.001Z,58.98
2024-02-11T18:11:40.860Z,59.15
2024-02-11T18:14:11.137Z,58.55
2024-02-11T18:16:39.725Z,58.96
2024-02-11T18:19:08.143Z,57.66
2024-02-11T18:21:37.494Z,57.51
2024-02-11T18:24:06.243Z,58.10
2024-02-11T18:26:35.559Z,56.83
2024-02-11T18:29:04.116Z,57.00
2024-02-11T18:31:32.779Z,57.21
2024-02-11T18:34:01.588Z,57.91
2024-02-11T18:36:29.797Z,57.59
2024-02-11T18:38:57.684Z,57.77
2024-02-11T18:41:25.587Z,58.61
2024-02-11T18:43:54.873Z,57.70
2024-02-11T18:46:22.784Z,57.52
2024-02-11T18:48:52.761Z,57.53
2024-02-11T18:51:20.982Z,58.44
2024-02-11T18:53:48.874Z,57.79
2024-02-11T18:56:16.868Z,57.41
2024-02-11T18:58:45.567Z,57.03
2024-02-11T19:01:15.061Z,57.63
2024-02-11T19:03:43.026Z,57.99
2024-02-11T19:06:11.133Z,56.94
2024-02-11T19:08:41.106Z,57.00
2024-02-11T19:11:10.778Z,56.76
2024-02-11T19:13:38.718Z,57.02
2024-02-11T19:16:07.873Z,57.59
2024-02-11T19:18:37.736Z,57.45
2024-02-11T19:21:06.607Z,57.37
2024-02-11T19:23:34.565Z,56.86
2024-02-11T19:26:02.568Z,56.00
2024-02-11T19:28:30.609Z,56.91
2024-02-11T19:30:59.252Z,56.79
2024-02-11T19:33:27.295Z,56.33
2024-02-11T19:35:57.578Z,57.16
2024-02-11T19:38:26.192Z,57.07
2024-02-11T19:40:54.721Z,55.88
2024-02-11T19:43:23.058Z,55.37
2024-02-11T19:45:51.403Z,54.51
2024-02-11T19:48:19.648Z,54.34
2024-02-11T19:50:47.657Z,54.82
2024-02-11T19:53:30.894Z,54.78
2024-02-11T19:56:04.209Z,52.75
2024-02-11T19:58:33.645Z,53.27
2024-02-11T20:01:05.134Z,53.80
2024-02-11T20:03:35.924Z,53.96
2024-02-11T20:06:04.085Z,53.48
2024-02-11T20:08:33.558Z,53.31
2024-02-11T20:11:01.652Z,53.34
2024-02-11T20:13:29.574Z,53.14
2024-02-11T20:15:57.664Z,54.14
2024-02-11T20:18:25.735Z,52.53
2024-02-11T20:20:56.395Z,52.45
2024-02-11T20:23:24.385Z,53.14
2024-02-11T20:25:55.426Z,51.56
2024-02-11T20:28:25.077Z,51.41
2024-02-11T20:30:54.176Z,52.25
2024-02-11T20:33:22.626Z,50.94
2024-02-11T20:35:50.557Z,49.47
2024-02-11T20:38:19.006Z,47.56
2024-02-11T20:40:47.496Z,51.34
2024-02-11T20:43:16.943Z,54.34
2024-02-11T20:45:45.733Z,57.85
2024-02-11T20:48:14.719Z,100.00
2024-02-11T20:50:42.705Z,100.00
2024-02-11T20:53:10.752Z,100.00
2024-02-11T20:55:38.850Z,100.00
2024-02-11T20:58:06.896Z,100.00
2024-02-11T23:20:22.064Z,100.00
2024-02-11T23:22:51.596Z,100.00
2024-02-11T23:25:20.755Z,100.00
2024-02-11T23:27:50.380Z,100.00
2024-02-11T23:30:18.533Z,100.00
2024-02-11T23:32:48.777Z,100.00
2024-02-11T23:35:17.220Z,100.00
2024-02-11T23:37:46.227Z,100.00
2024-02-11T23:42:42.403Z,100.00
2024-02-11T23:45:11.433Z,100.00
2024-02-11T23:47:39.594Z,100.00
2024-02-11T23:50:10.561Z,100.00
2024-02-11T23:52:38.559Z,100.00
2024-02-11T23:55:08.682Z,100.00
2024-02-11T23:57:41.881Z,100.00
